sensor_id;sensor_type;location;lat;lon;timestamp;temperature;humidity
22002;DHT22;11165;51.278;12.398;2022-09-09T00:00:15;14.10;99.90
22002;DHT22;11165;51.278;12.398;2022-09-09T00:02:49;14.10;99.90
22002;DHT22;11165;51.278;12.398;2022-09-09T00:05:27;14.10;99.90
22002;DHT22;11165;51.278;12.398;2022-09-09T00:07:55;14.00;99.90
22002;DHT22;11165;51.278;12.398;2022-09-09T00:10:40;14.10;99.90
22002;DHT22;11165;51.278;12.398;2022-09-09T00:13:21;13.90;99.90
22002;DHT22;11165;51.278;12.398;2022-09-09T00:15:57;13.90;99.90
22002;DHT22;11165;51.278;12.398;2022-09-09T00:18:44;14.00;99.90
22002;DHT22;11165;51.278;12.398;2022-09-09T00:21:13;14.10;99.90
22002;DHT22;11165;51.278;12.398;2022-09-09T00:23:50;14.10;99.90
22002;DHT22;11165;51.278;12.398;2022-09-09T00:26:26;14.20;99.90
22002;DHT22;11165;51.278;12.398;2022-09-09T00:31:41;14.50;99.90
22002;DHT22;11165;51.278;12.398;2022-09-09T00:34:18;14.40;99.90
22002;DHT22;11165;51.278;12.398;2022-09-09T00:36:45;14.30;99.90
22002;DHT22;11165;51.278;12.398;2022-09-09T00:39:39;14.50;99.90
22002;DHT22;11165;51.278;12.398;2022-09-09T00:48:02;14.40;99.90
22002;DHT22;11165;51.278;12.398;2022-09-09T00:50:39;14.40;99.90
22002;DHT22;11165;51.278;12.398;2022-09-09T00:58:27;14.30;99.90
22002;DHT22;11165;51.278;12.398;2022-09-09T01:03:35;14.40;99.90
22002;DHT22;11165;51.278;12.398;2022-09-09T01:06:16;14.40;99.90
22002;DHT22;11165;51.278;12.398;2022-09-09T01:08:58;14.20;99.90
22002;DHT22;11165;51.278;12.398;2022-09-09T01:14:42;14.20;99.90
22002;DHT22;11165;51.278;12.398;2022-09-09T01:17:22;14.20;99.90
22002;DHT22;11165;51.278;12.398;2022-09-09T01:20:26;14.00;99.90
22002;DHT22;11165;51.278;12.398;2022-09-09T01:28:34;13.90;99.90
22002;DHT22;11165;51.278;12.398;2022-09-09T01:31:04;13.80;99.90
22002;DHT22;11165;51.278;12.398;2022-09-09T01:33:31;13.80;99.90
22002;DHT22;11165;51.278;12.398;2022-09-09T01:36:01;13.90;99.90
22002;DHT22;11165;51.278;12.398;2022-09-09T01:38:28;14.00;99.90
22002;DHT22;11165;51.278;12.398;2022-09-09T01:40:55;14.10;99.90
22002;DHT22;11165;51.278;12.398;2022-09-09T01:43:21;14.10;99.90
22002;DHT22;11165;51.278;12.398;2022-09-09T01:45:50;14.10;99.90
22002;DHT22;11165;51.278;12.398;2022-09-09T01:48:18;14.00;99.90
22002;DHT22;11165;51.278;12.398;2022-09-09T01:50:44;14.00;99.90
22002;DHT22;11165;51.278;12.398;2022-09-09T01:53:10;14.10;99.90
22002;DHT22;11165;51.278;12.398;2022-09-09T01:55:39;14.00;99.90
22002;DHT22;11165;51.278;12.398;2022-09-09T01:58:29;14.10;99.90
22002;DHT22;11165;51.278;12.398;2022-09-09T02:01:05;14.20;99.90
22002;DHT22;11165;51.278;12.398;2022-09-09T02:03:32;14.30;99.90
22002;DHT22;11165;51.278;12.398;2022-09-09T02:08:55;14.30;99.90
22002;DHT22;11165;51.278;12.398;2022-09-09T02:11:26;14.30;99.90
22002;DHT22;11165;51.278;12.398;2022-09-09T02:14:06;14.20;99.90
22002;DHT22;11165;51.278;12.398;2022-09-09T02:16:50;14.30;99.90
22002;DHT22;11165;51.278;12.398;2022-09-09T02:19:46;14.20;99.90
22002;DHT22;11165;51.278;12.398;2022-09-09T02:22:16;14.30;99.90
22002;DHT22;11165;51.278;12.398;2022-09-09T02:24:42;14.10;99.90
22002;DHT22;11165;51.278;12.398;2022-09-09T02:27:09;14.20;99.90
22002;DHT22;11165;51.278;12.398;2022-09-09T02:29:41;14.20;99.90
22002;DHT22;11165;51.278;12.398;2022-09-09T02:32:11;14.30;99.90
22002;DHT22;11165;51.278;12.398;2022-09-09T02:34:43;14.30;99.90
22002;DHT22;11165;51.278;12.398;2022-09-09T02:37:10;14.30;99.90
22002;DHT22;11165;51.278;12.398;2022-09-09T02:39:36;14.20;99.90
22002;DHT22;11165;51.278;12.398;2022-09-09T02:42:03;14.20;99.90
22002;DHT22;11165;51.278;12.398;2022-09-09T02:44:29;14.10;99.90
22002;DHT22;11165;51.278;12.398;2022-09-09T02:47:43;14.10;99.90
22002;DHT22;11165;51.278;12.398;2022-09-09T02:53:18;14.00;99.90
22002;DHT22;11165;51.278;12.398;2022-09-09T02:56:08;14.10;99.90
22002;DHT22;11165;51.278;12.398;2022-09-09T02:58:35;14.10;99.90
22002;DHT22;11165;51.278;12.398;2022-09-09T03:01:01;14.20;99.90
22002;DHT22;11165;51.278;12.398;2022-09-09T03:03:28;14.20;99.90
22002;DHT22;11165;51.278;12.398;2022-09-09T03:05:54;14.20;99.90
22002;DHT22;11165;51.278;12.398;2022-09-09T03:08:20;14.20;99.90
22002;DHT22;11165;51.278;12.398;2022-09-09T03:10:45;14.20;99.90
22002;DHT22;11165;51.278;12.398;2022-09-09T03:13:11;14.20;99.90
22002;DHT22;11165;51.278;12.398;2022-09-09T03:15:38;14.20;99.90
22002;DHT22;11165;51.278;12.398;2022-09-09T03:18:04;14.00;99.90
22002;DHT22;11165;51.278;12.398;2022-09-09T03:20:30;14.00;99.90
22002;DHT22;11165;51.278;12.398;2022-09-09T03:22:56;14.10;99.90
22002;DHT22;11165;51.278;12.398;2022-09-09T03:25:23;13.90;99.90
22002;DHT22;11165;51.278;12.398;2022-09-09T03:27:53;13.90;99.90
22002;DHT22;11165;51.278;12.398;2022-09-09T03:30:21;14.00;99.90
22002;DHT22;11165;51.278;12.398;2022-09-09T03:32:47;14.10;99.90
22002;DHT22;11165;51.278;12.398;2022-09-09T03:35:13;14.10;99.90
22002;DHT22;11165;51.278;12.398;2022-09-09T03:37:39;14.10;99.90
22002;DHT22;11165;51.278;12.398;2022-09-09T03:40:04;14.00;99.90
22002;DHT22;11165;51.278;12.398;2022-09-09T03:42:30;14.00;99.90
22002;DHT22;11165;51.278;12.398;2022-09-09T03:44:57;14.00;99.90
22002;DHT22;11165;51.278;12.398;2022-09-09T03:47:23;13.90;99.90
22002;DHT22;11165;51.278;12.398;2022-09-09T03:49:49;13.80;99.90
22002;DHT22;11165;51.278;12.398;2022-09-09T03:52:15;13.80;99.90
22002;DHT22;11165;51.278;12.398;2022-09-09T03:54:41;13.90;99.90
22002;DHT22;11165;51.278;12.398;2022-09-09T03:57:10;13.90;99.90
22002;DHT22;11165;51.278;12.398;2022-09-09T03:59:36;13.80;99.90
22002;DHT22;11165;51.278;12.398;2022-09-09T04:02:02;13.90;99.90
22002;DHT22;11165;51.278;12.398;2022-09-09T04:04:28;13.80;99.90
22002;DHT22;11165;51.278;12.398;2022-09-09T04:06:54;13.70;99.90
22002;DHT22;11165;51.278;12.398;2022-09-09T04:09:20;13.80;99.90
22002;DHT22;11165;51.278;12.398;2022-09-09T04:11:45;13.70;99.90
22002;DHT22;11165;51.278;12.398;2022-09-09T04:14:11;13.60;99.90
22002;DHT22;11165;51.278;12.398;2022-09-09T04:16:38;13.60;99.90
22002;DHT22;11165;51.278;12.398;2022-09-09T04:19:04;13.60;99.90
22002;DHT22;11165;51.278;12.398;2022-09-09T04:21:31;13.60;99.90
22002;DHT22;11165;51.278;12.398;2022-09-09T04:23:57;13.60;99.90
22002;DHT22;11165;51.278;12.398;2022-09-09T04:26:22;13.50;99.90
22002;DHT22;11165;51.278;12.398;2022-09-09T04:28:48;13.50;99.90
22002;DHT22;11165;51.278;12.398;2022-09-09T04:31:21;13.60;99.90
22002;DHT22;11165;51.278;12.398;2022-09-09T04:33:49;13.60;99.90
22002;DHT22;11165;51.278;12.398;2022-09-09T04:36:15;13.70;99.90
22002;DHT22;11165;51.278;12.398;2022-09-09T04:38:41;13.70;99.90
22002;DHT22;11165;51.278;12.398;2022-09-09T04:41:07;13.80;99.90
22002;DHT22;11165;51.278;12.398;2022-09-09T04:43:33;13.70;99.90
22002;DHT22;11165;51.278;12.398;2022-09-09T04:45:59;13.80;99.90
22002;DHT22;11165;51.278;12.398;2022-09-09T04:48:25;13.90;99.90
22002;DHT22;11165;51.278;12.398;2022-09-09T04:50:55;13.90;99.90
22002;DHT22;11165;51.278;12.398;2022-09-09T04:53:21;13.90;99.90
22002;DHT22;11165;51.278;12.398;2022-09-09T04:55:47;14.00;99.90
22002;DHT22;11165;51.278;12.398;2022-09-09T04:58:14;14.10;99.90
22002;DHT22;11165;51.278;12.398;2022-09-09T05:00:39;14.00;99.90
22002;DHT22;11165;51.278;12.398;2022-09-09T05:03:05;14.10;99.90
22002;DHT22;11165;51.278;12.398;2022-09-09T05:05:32;14.00;99.90
22002;DHT22;11165;51.278;12.398;2022-09-09T05:08:06;14.00;99.90
22002;DHT22;11165;51.278;12.398;2022-09-09T05:10:33;14.00;99.90
22002;DHT22;11165;51.278;12.398;2022-09-09T05:12:59;14.00;99.90
22002;DHT22;11165;51.278;12.398;2022-09-09T05:15:24;14.10;99.90
22002;DHT22;11165;51.278;12.398;2022-09-09T05:17:50;14.10;99.90
22002;DHT22;11165;51.278;12.398;2022-09-09T05:20:17;14.20;99.90
22002;DHT22;11165;51.278;12.398;2022-09-09T05:22:43;14.30;99.90
22002;DHT22;11165;51.278;12.398;2022-09-09T05:25:09;14.30;99.90
22002;DHT22;11165;51.278;12.398;2022-09-09T05:27:34;14.40;99.90
22002;DHT22;11165;51.278;12.398;2022-09-09T05:30:00;14.40;99.90
22002;DHT22;11165;51.278;12.398;2022-09-09T05:32:25;14.50;99.90
22002;DHT22;11165;51.278;12.398;2022-09-09T05:34:51;14.60;99.90
22002;DHT22;11165;51.278;12.398;2022-09-09T05:37:18;14.60;99.90
22002;DHT22;11165;51.278;12.398;2022-09-09T05:39:43;14.50;99.90
22002;DHT22;11165;51.278;12.398;2022-09-09T05:42:09;14.60;99.90
22002;DHT22;11165;51.278;12.398;2022-09-09T05:44:35;14.70;99.90
22002;DHT22;11165;51.278;12.398;2022-09-09T05:47:00;14.70;99.90
22002;DHT22;11165;51.278;12.398;2022-09-09T05:49:26;14.80;99.90
22002;DHT22;11165;51.278;12.398;2022-09-09T05:51:52;14.90;99.90
22002;DHT22;11165;51.278;12.398;2022-09-09T05:54:18;14.80;99.90
22002;DHT22;11165;51.278;12.398;2022-09-09T05:56:43;14.90;99.90
22002;DHT22;11165;51.278;12.398;2022-09-09T05:59:09;15.00;99.90
22002;DHT22;11165;51.278;12.398;2022-09-09T06:01:36;15.00;99.90
22002;DHT22;11165;51.278;12.398;2022-09-09T06:04:06;15.00;99.90
22002;DHT22;11165;51.278;12.398;2022-09-09T06:06:34;15.10;99.90
22002;DHT22;11165;51.278;12.398;2022-09-09T06:09:06;15.10;99.90
22002;DHT22;11165;51.278;12.398;2022-09-09T06:11:35;15.20;99.90
22002;DHT22;11165;51.278;12.398;2022-09-09T06:14:01;15.10;99.90
22002;DHT22;11165;51.278;12.398;2022-09-09T06:16:28;15.30;99.90
22002;DHT22;11165;51.278;12.398;2022-09-09T06:18:55;15.30;99.90
22002;DHT22;11165;51.278;12.398;2022-09-09T06:21:23;15.50;99.90
22002;DHT22;11165;51.278;12.398;2022-09-09T06:23:49;15.50;99.90
22002;DHT22;11165;51.278;12.398;2022-09-09T06:26:17;15.50;99.90
22002;DHT22;11165;51.278;12.398;2022-09-09T06:28:44;15.50;99.90
22002;DHT22;11165;51.278;12.398;2022-09-09T06:31:12;15.60;99.90
22002;DHT22;11165;51.278;12.398;2022-09-09T06:33:39;15.70;99.90
22002;DHT22;11165;51.278;12.398;2022-09-09T06:36:07;15.70;99.90
22002;DHT22;11165;51.278;12.398;2022-09-09T06:38:35;15.80;99.90
22002;DHT22;11165;51.278;12.398;2022-09-09T06:41:01;15.80;99.90
22002;DHT22;11165;51.278;12.398;2022-09-09T06:43:27;15.90;99.90
22002;DHT22;11165;51.278;12.398;2022-09-09T06:46:06;16.00;99.90
22002;DHT22;11165;51.278;12.398;2022-09-09T06:48:31;16.00;99.90
22002;DHT22;11165;51.278;12.398;2022-09-09T06:51:05;16.10;99.90
22002;DHT22;11165;51.278;12.398;2022-09-09T06:53:33;16.10;99.90
22002;DHT22;11165;51.278;12.398;2022-09-09T06:56:00;16.10;99.90
22002;DHT22;11165;51.278;12.398;2022-09-09T06:58:27;16.10;99.90
22002;DHT22;11165;51.278;12.398;2022-09-09T07:01:02;16.40;99.90
22002;DHT22;11165;51.278;12.398;2022-09-09T07:03:27;16.80;99.90
22002;DHT22;11165;51.278;12.398;2022-09-09T07:05:54;17.60;99.90
22002;DHT22;11165;51.278;12.398;2022-09-09T07:08:21;17.40;99.90
22002;DHT22;11165;51.278;12.398;2022-09-09T07:10:47;17.00;99.90
22002;DHT22;11165;51.278;12.398;2022-09-09T07:13:13;17.20;99.90
22002;DHT22;11165;51.278;12.398;2022-09-09T07:15:39;17.40;99.90
22002;DHT22;11165;51.278;12.398;2022-09-09T07:18:05;17.50;99.90
22002;DHT22;11165;51.278;12.398;2022-09-09T07:20:30;17.90;99.90
22002;DHT22;11165;51.278;12.398;2022-09-09T07:22:56;18.30;99.90
22002;DHT22;11165;51.278;12.398;2022-09-09T07:25:22;18.80;99.90
22002;DHT22;11165;51.278;12.398;2022-09-09T07:27:47;19.40;99.90
22002;DHT22;11165;51.278;12.398;2022-09-09T07:30:13;20.00;99.90
22002;DHT22;11165;51.278;12.398;2022-09-09T07:32:40;20.20;99.90
22002;DHT22;11165;51.278;12.398;2022-09-09T07:35:05;19.30;99.90
22002;DHT22;11165;51.278;12.398;2022-09-09T07:37:31;19.20;99.90
22002;DHT22;11165;51.278;12.398;2022-09-09T07:39:56;19.40;99.90
22002;DHT22;11165;51.278;12.398;2022-09-09T07:42:22;19.70;99.90
22002;DHT22;11165;51.278;12.398;2022-09-09T07:44:48;19.60;99.90
22002;DHT22;11165;51.278;12.398;2022-09-09T07:47:13;19.70;99.90
22002;DHT22;11165;51.278;12.398;2022-09-09T07:49:39;20.40;99.90
22002;DHT22;11165;51.278;12.398;2022-09-09T07:52:04;20.40;99.90
22002;DHT22;11165;51.278;12.398;2022-09-09T07:54:30;20.80;99.90
22002;DHT22;11165;51.278;12.398;2022-09-09T07:56:57;19.80;99.90
22002;DHT22;11165;51.278;12.398;2022-09-09T07:59:23;20.60;99.90
22002;DHT22;11165;51.278;12.398;2022-09-09T08:01:51;20.70;99.90
22002;DHT22;11165;51.278;12.398;2022-09-09T08:04:20;20.80;99.90
22002;DHT22;11165;51.278;12.398;2022-09-09T08:06:49;20.70;99.90
22002;DHT22;11165;51.278;12.398;2022-09-09T08:09:15;21.10;99.90
22002;DHT22;11165;51.278;12.398;2022-09-09T08:11:41;21.70;99.90
22002;DHT22;11165;51.278;12.398;2022-09-09T08:14:09;21.90;99.90
22002;DHT22;11165;51.278;12.398;2022-09-09T08:16:37;22.00;99.90
22002;DHT22;11165;51.278;12.398;2022-09-09T08:19:04;21.90;99.90
22002;DHT22;11165;51.278;12.398;2022-09-09T08:21:32;21.80;99.90
22002;DHT22;11165;51.278;12.398;2022-09-09T08:24:00;22.00;99.90
22002;DHT22;11165;51.278;12.398;2022-09-09T08:26:29;21.60;99.90
22002;DHT22;11165;51.278;12.398;2022-09-09T08:28:57;21.10;99.90
22002;DHT22;11165;51.278;12.398;2022-09-09T08:31:31;21.80;99.90
22002;DHT22;11165;51.278;12.398;2022-09-09T08:33:58;21.70;99.90
22002;DHT22;11165;51.278;12.398;2022-09-09T08:36:31;21.50;99.90
22002;DHT22;11165;51.278;12.398;2022-09-09T08:38:59;20.60;99.90
22002;DHT22;11165;51.278;12.398;2022-09-09T08:52:17;21.60;99.90
22002;DHT22;11165;51.278;12.398;2022-09-09T08:54:44;22.20;99.90
22002;DHT22;11165;51.278;12.398;2022-09-09T08:57:14;22.80;99.90
22002;DHT22;11165;51.278;12.398;2022-09-09T08:59:43;23.40;99.90
22002;DHT22;11165;51.278;12.398;2022-09-09T09:02:25;23.70;99.90
22002;DHT22;11165;51.278;12.398;2022-09-09T09:10:39;24.20;99.90
22002;DHT22;11165;51.278;12.398;2022-09-09T09:13:27;23.10;99.90
22002;DHT22;11165;51.278;12.398;2022-09-09T09:16:00;24.10;99.90
22002;DHT22;11165;51.278;12.398;2022-09-09T09:18:27;23.50;99.90
22002;DHT22;11165;51.278;12.398;2022-09-09T09:21:10;24.10;99.90
22002;DHT22;11165;51.278;12.398;2022-09-09T09:23:48;24.00;99.90
22002;DHT22;11165;51.278;12.398;2022-09-09T09:26:16;24.70;99.90
22002;DHT22;11165;51.278;12.398;2022-09-09T09:28:42;24.20;99.90
22002;DHT22;11165;51.278;12.398;2022-09-09T09:31:11;24.80;99.90
22002;DHT22;11165;51.278;12.398;2022-09-09T09:33:54;24.20;99.90
22002;DHT22;11165;51.278;12.398;2022-09-09T09:36:33;23.90;99.90
22002;DHT22;11165;51.278;12.398;2022-09-09T09:39:01;23.60;99.90
22002;DHT22;11165;51.278;12.398;2022-09-09T09:41:34;23.20;99.90
22002;DHT22;11165;51.278;12.398;2022-09-09T09:44:01;23.00;99.90
22002;DHT22;11165;51.278;12.398;2022-09-09T09:46:27;22.80;99.90
22002;DHT22;11165;51.278;12.398;2022-09-09T09:49:00;22.90;99.90
22002;DHT22;11165;51.278;12.398;2022-09-09T09:51:29;22.70;99.90
22002;DHT22;11165;51.278;12.398;2022-09-09T09:54:05;22.80;99.90
22002;DHT22;11165;51.278;12.398;2022-09-09T09:56:32;22.80;99.90
22002;DHT22;11165;51.278;12.398;2022-09-09T09:58:58;22.90;99.90
22002;DHT22;11165;51.278;12.398;2022-09-09T10:01:25;22.70;99.90
22002;DHT22;11165;51.278;12.398;2022-09-09T10:03:54;23.00;99.90
22002;DHT22;11165;51.278;12.398;2022-09-09T10:06:34;23.30;99.90
22002;DHT22;11165;51.278;12.398;2022-09-09T10:09:01;23.60;99.90
22002;DHT22;11165;51.278;12.398;2022-09-09T10:11:47;23.70;99.90
22002;DHT22;11165;51.278;12.398;2022-09-09T10:14:29;23.10;99.90
22002;DHT22;11165;51.278;12.398;2022-09-09T10:19:47;22.60;99.90
22002;DHT22;11165;51.278;12.398;2022-09-09T10:22:32;22.80;99.90
22002;DHT22;11165;51.278;12.398;2022-09-09T10:25:20;22.90;99.90
22002;DHT22;11165;51.278;12.398;2022-09-09T10:33:32;22.60;99.90
22002;DHT22;11165;51.278;12.398;2022-09-09T10:36:13;22.80;99.90
22002;DHT22;11165;51.278;12.398;2022-09-09T10:38:46;23.00;99.90
22002;DHT22;11165;51.278;12.398;2022-09-09T10:41:24;23.20;99.90
22002;DHT22;11165;51.278;12.398;2022-09-09T10:44:17;22.90;99.90
22002;DHT22;11165;51.278;12.398;2022-09-09T10:50:01;23.30;99.90
22002;DHT22;11165;51.278;12.398;2022-09-09T10:55:23;23.00;99.90
22002;DHT22;11165;51.278;12.398;2022-09-09T10:57:52;22.90;99.90
22002;DHT22;11165;51.278;12.398;2022-09-09T11:00:21;23.00;99.90
22002;DHT22;11165;51.278;12.398;2022-09-09T11:05:21;22.70;99.90
22002;DHT22;11165;51.278;12.398;2022-09-09T11:08:04;22.70;99.90
22002;DHT22;11165;51.278;12.398;2022-09-09T11:10:48;23.10;99.90
22002;DHT22;11165;51.278;12.398;2022-09-09T11:13:42;23.20;99.90
22002;DHT22;11165;51.278;12.398;2022-09-09T11:21:48;23.10;99.90
22002;DHT22;11165;51.278;12.398;2022-09-09T11:24:40;23.30;99.90
22002;DHT22;11165;51.278;12.398;2022-09-09T11:27:09;22.80;99.90
22002;DHT22;11165;51.278;12.398;2022-09-09T11:32:58;22.20;99.90
22002;DHT22;11165;51.278;12.398;2022-09-09T11:35:38;22.00;99.90
22002;DHT22;11165;51.278;12.398;2022-09-09T11:40:36;22.20;99.90
22002;DHT22;11165;51.278;12.398;2022-09-09T11:43:05;22.10;99.90
22002;DHT22;11165;51.278;12.398;2022-09-09T11:45:34;21.90;99.90
22002;DHT22;11165;51.278;12.398;2022-09-09T11:48:02;21.70;99.90
22002;DHT22;11165;51.278;12.398;2022-09-09T11:50:36;22.00;99.90
22002;DHT22;11165;51.278;12.398;2022-09-09T11:53:23;22.50;99.90
22002;DHT22;11165;51.278;12.398;2022-09-09T11:56:00;22.50;99.90
22002;DHT22;11165;51.278;12.398;2022-09-09T11:58:27;22.10;99.90
22002;DHT22;11165;51.278;12.398;2022-09-09T12:00:58;22.30;99.90
22002;DHT22;11165;51.278;12.398;2022-09-09T12:03:46;22.30;99.90
22002;DHT22;11165;51.278;12.398;2022-09-09T12:06:20;22.10;99.90
22002;DHT22;11165;51.278;12.398;2022-09-09T12:09:33;22.40;99.90
22002;DHT22;11165;51.278;12.398;2022-09-09T12:11:51;22.40;99.90
22002;DHT22;11165;51.278;12.398;2022-09-09T12:14:21;21.90;99.90
22002;DHT22;11165;51.278;12.398;2022-09-09T12:16:47;21.90;99.90
22002;DHT22;11165;51.278;12.398;2022-09-09T12:19:20;21.90;99.90
22002;DHT22;11165;51.278;12.398;2022-09-09T12:24:30;22.00;99.90
22002;DHT22;11165;51.278;12.398;2022-09-09T12:27:11;22.00;99.90
22002;DHT22;11165;51.278;12.398;2022-09-09T12:29:58;22.00;99.90
22002;DHT22;11165;51.278;12.398;2022-09-09T12:32:27;22.00;99.90
22002;DHT22;11165;51.278;12.398;2022-09-09T12:34:55;21.90;99.90
22002;DHT22;11165;51.278;12.398;2022-09-09T12:39:58;22.60;99.90
22002;DHT22;11165;51.278;12.398;2022-09-09T12:42:26;22.90;99.90
22002;DHT22;11165;51.278;12.398;2022-09-09T12:44:58;23.00;99.90
22002;DHT22;11165;51.278;12.398;2022-09-09T12:47:38;22.70;99.90
22002;DHT22;11165;51.278;12.398;2022-09-09T12:50:25;22.50;99.90
22002;DHT22;11165;51.278;12.398;2022-09-09T12:52:54;22.30;99.90
22002;DHT22;11165;51.278;12.398;2022-09-09T12:55:24;22.70;99.90
22002;DHT22;11165;51.278;12.398;2022-09-09T12:57:51;23.10;99.90
22002;DHT22;11165;51.278;12.398;2022-09-09T13:00:22;23.20;99.90
22002;DHT22;11165;51.278;12.398;2022-09-09T13:02:52;23.30;99.90
22002;DHT22;11165;51.278;12.398;2022-09-09T13:07:46;22.90;99.90
22002;DHT22;11165;51.278;12.398;2022-09-09T13:10:14;22.70;99.90
22002;DHT22;11165;51.278;12.398;2022-09-09T13:12:40;23.00;99.90
22002;DHT22;11165;51.278;12.398;2022-09-09T13:15:16;22.90;99.90
22002;DHT22;11165;51.278;12.398;2022-09-09T13:17:51;23.30;99.90
22002;DHT22;11165;51.278;12.398;2022-09-09T13:20:19;23.30;99.90
22002;DHT22;11165;51.278;12.398;2022-09-09T13:22:46;23.00;99.90
22002;DHT22;11165;51.278;12.398;2022-09-09T13:25:18;22.60;99.90
22002;DHT22;11165;51.278;12.398;2022-09-09T13:30:21;22.40;99.90
22002;DHT22;11165;51.278;12.398;2022-09-09T13:33:22;22.30;99.90
22002;DHT22;11165;51.278;12.398;2022-09-09T13:35:56;22.30;99.90
22002;DHT22;11165;51.278;12.398;2022-09-09T13:38:22;22.20;99.90
22002;DHT22;11165;51.278;12.398;2022-09-09T13:41:09;22.20;99.90
22002;DHT22;11165;51.278;12.398;2022-09-09T13:43:38;22.20;99.90
22002;DHT22;11165;51.278;12.398;2022-09-09T13:48:56;22.10;99.90
22002;DHT22;11165;51.278;12.398;2022-09-09T13:51:33;22.00;99.90
22002;DHT22;11165;51.278;12.398;2022-09-09T13:54:00;22.00;99.90
22002;DHT22;11165;51.278;12.398;2022-09-09T13:56:26;22.00;99.90
22002;DHT22;11165;51.278;12.398;2022-09-09T13:58:51;21.10;99.90
22002;DHT22;11165;51.278;12.398;2022-09-09T14:01:17;20.60;99.90
22002;DHT22;11165;51.278;12.398;2022-09-09T14:03:42;19.90;99.90
22002;DHT22;11165;51.278;12.398;2022-09-09T14:06:11;19.30;99.90
22002;DHT22;11165;51.278;12.398;2022-09-09T14:08:37;18.80;99.90
22002;DHT22;11165;51.278;12.398;2022-09-09T14:11:04;18.60;99.90
22002;DHT22;11165;51.278;12.398;2022-09-09T14:13:29;18.20;99.90
22002;DHT22;11165;51.278;12.398;2022-09-09T14:15:55;18.00;99.90
22002;DHT22;11165;51.278;12.398;2022-09-09T14:18:21;18.10;99.90
22002;DHT22;11165;51.278;12.398;2022-09-09T14:20:48;18.20;99.90
22002;DHT22;11165;51.278;12.398;2022-09-09T14:23:15;18.30;99.90
22002;DHT22;11165;51.278;12.398;2022-09-09T14:25:43;18.20;99.90
22002;DHT22;11165;51.278;12.398;2022-09-09T14:28:10;18.30;99.90
22002;DHT22;11165;51.278;12.398;2022-09-09T14:30:37;18.40;99.90
22002;DHT22;11165;51.278;12.398;2022-09-09T14:33:03;18.40;99.90
22002;DHT22;11165;51.278;12.398;2022-09-09T14:35:29;18.40;99.90
22002;DHT22;11165;51.278;12.398;2022-09-09T14:37:54;18.40;99.90
22002;DHT22;11165;51.278;12.398;2022-09-09T14:40:21;18.30;99.90
22002;DHT22;11165;51.278;12.398;2022-09-09T14:42:47;18.40;99.90
22002;DHT22;11165;51.278;12.398;2022-09-09T14:45:13;18.30;99.90
22002;DHT22;11165;51.278;12.398;2022-09-09T14:47:38;18.30;99.90
22002;DHT22;11165;51.278;12.398;2022-09-09T14:50:05;18.40;99.90
22002;DHT22;11165;51.278;12.398;2022-09-09T14:52:31;18.50;99.90
22002;DHT22;11165;51.278;12.398;2022-09-09T14:54:57;18.70;99.90
22002;DHT22;11165;51.278;12.398;2022-09-09T14:57:22;18.70;99.90
22002;DHT22;11165;51.278;12.398;2022-09-09T14:59:48;19.00;99.90
22002;DHT22;11165;51.278;12.398;2022-09-09T15:02:15;19.10;99.90
22002;DHT22;11165;51.278;12.398;2022-09-09T15:04:41;19.30;99.90
22002;DHT22;11165;51.278;12.398;2022-09-09T15:07:06;19.60;99.90
22002;DHT22;11165;51.278;12.398;2022-09-09T15:09:32;19.70;99.90
22002;DHT22;11165;51.278;12.398;2022-09-09T15:11:57;19.90;99.90
22002;DHT22;11165;51.278;12.398;2022-09-09T15:14:23;20.20;99.90
22002;DHT22;11165;51.278;12.398;2022-09-09T15:16:48;20.30;99.90
22002;DHT22;11165;51.278;12.398;2022-09-09T15:19:14;20.30;99.90
22002;DHT22;11165;51.278;12.398;2022-09-09T15:21:39;20.40;99.90
22002;DHT22;11165;51.278;12.398;2022-09-09T15:24:05;20.40;99.90
22002;DHT22;11165;51.278;12.398;2022-09-09T15:26:33;20.10;99.90
22002;DHT22;11165;51.278;12.398;2022-09-09T15:28:59;20.10;99.90
22002;DHT22;11165;51.278;12.398;2022-09-09T15:31:27;20.00;99.90
22002;DHT22;11165;51.278;12.398;2022-09-09T15:33:58;19.90;99.90
22002;DHT22;11165;51.278;12.398;2022-09-09T15:36:29;20.00;99.90
22002;DHT22;11165;51.278;12.398;2022-09-09T15:38:55;20.10;99.90
22002;DHT22;11165;51.278;12.398;2022-09-09T15:41:22;20.10;99.90
22002;DHT22;11165;51.278;12.398;2022-09-09T15:43:50;20.30;99.90
22002;DHT22;11165;51.278;12.398;2022-09-09T15:48:53;20.40;99.90
22002;DHT22;11165;51.278;12.398;2022-09-09T15:51:20;20.60;99.90
22002;DHT22;11165;51.278;12.398;2022-09-09T15:53:45;20.70;99.90
22002;DHT22;11165;51.278;12.398;2022-09-09T15:56:11;20.60;99.90
22002;DHT22;11165;51.278;12.398;2022-09-09T15:58:36;20.60;99.90
22002;DHT22;11165;51.278;12.398;2022-09-09T16:01:06;20.60;99.90
22002;DHT22;11165;51.278;12.398;2022-09-09T16:03:40;20.50;99.90
22002;DHT22;11165;51.278;12.398;2022-09-09T16:06:12;20.40;99.90
22002;DHT22;11165;51.278;12.398;2022-09-09T16:08:41;20.50;99.90
22002;DHT22;11165;51.278;12.398;2022-09-09T16:11:11;20.50;99.90
22002;DHT22;11165;51.278;12.398;2022-09-09T16:13:37;20.60;99.90
22002;DHT22;11165;51.278;12.398;2022-09-09T16:16:05;20.60;99.90
22002;DHT22;11165;51.278;12.398;2022-09-09T16:18:45;20.60;99.90
22002;DHT22;11165;51.278;12.398;2022-09-09T16:21:22;20.50;99.90
22002;DHT22;11165;51.278;12.398;2022-09-09T16:23:50;20.50;99.90
22002;DHT22;11165;51.278;12.398;2022-09-09T16:26:17;20.60;99.90
22002;DHT22;11165;51.278;12.398;2022-09-09T16:28:43;20.60;99.90
22002;DHT22;11165;51.278;12.398;2022-09-09T16:31:11;20.50;99.90
22002;DHT22;11165;51.278;12.398;2022-09-09T16:33:38;20.50;99.90
22002;DHT22;11165;51.278;12.398;2022-09-09T16:36:08;20.60;99.90
22002;DHT22;11165;51.278;12.398;2022-09-09T16:38:34;20.70;99.90
22002;DHT22;11165;51.278;12.398;2022-09-09T16:41:01;20.50;99.90
22002;DHT22;11165;51.278;12.398;2022-09-09T16:43:27;20.50;99.90
22002;DHT22;11165;51.278;12.398;2022-09-09T16:45:52;20.40;99.90
22002;DHT22;11165;51.278;12.398;2022-09-09T16:48:18;20.40;99.90
22002;DHT22;11165;51.278;12.398;2022-09-09T16:50:43;20.30;99.90
22002;DHT22;11165;51.278;12.398;2022-09-09T16:53:09;20.30;99.90
22002;DHT22;11165;51.278;12.398;2022-09-09T16:55:40;20.30;99.90
22002;DHT22;11165;51.278;12.398;2022-09-09T16:58:07;20.10;99.90
22002;DHT22;11165;51.278;12.398;2022-09-09T17:00:35;20.00;99.90
22002;DHT22;11165;51.278;12.398;2022-09-09T17:03:01;20.00;99.90